Time;durP1;ratioP1;P1;durP2;ratioP2;P2;SDS_P1;SDS_P2;PMS_P1;PMS_P2;Temp;Humidity;BMP_temperature;BMP_pressure;BME280_temperature;BME280_humidity;BME280_pressure;Samples;Min_cycle;Max_cycle;Signal;HPM_P1;HPM_P2
2023/05/10 00:01:45;;;;;;;1.23;0.70;;;14.00;86.80;;;;;;4873081;29;20229;-74
2023/05/10 00:04:13;;;;;;;4.03;0.97;;;14.00;86.60;;;;;;4874493;29;20737;-74
2023/05/10 00:06:43;;;;;;;1.10;0.90;;;14.00;86.40;;;;;;4876891;29;20209;-73
2023/05/10 00:09:11;;;;;;;0.50;0.50;;;13.90;86.20;;;;;;4872480;29;20322;-74
2023/05/10 00:11:40;;;;;;;5.27;1.07;;;13.90;86.20;;;;;;4874962;29;20202;-74
2023/05/10 00:14:08;;;;;;;1.13;1.00;;;13.90;86.00;;;;;;4872499;29;20232;-73
2023/05/10 00:16:36;;;;;;;1.27;0.77;;;13.90;86.10;;;;;;4877811;29;20247;-74
2023/05/10 00:19:05;;;;;;;0.20;0.20;;;13.80;86.00;;;;;;4870370;29;20224;-73
2023/05/10 00:21:33;;;;;;;0.60;0.57;;;13.80;86.20;;;;;;4871163;29;20217;-73
2023/05/10 00:24:03;;;;;;;1.13;1.03;;;13.70;86.10;;;;;;4874072;29;20205;-75
2023/05/10 00:26:31;;;;;;;0.40;0.40;;;13.70;86.00;;;;;;4875046;29;20534;-73
2023/05/10 00:29:00;;;;;;;0.87;0.80;;;13.70;86.00;;;;;;4869748;29;20229;-74
2023/05/10 00:31:28;;;;;;;1.77;1.37;;;13.60;86.00;;;;;;4867609;29;20198;-74
2023/05/10 00:33:57;;;;;;;1.40;0.97;;;13.60;86.10;;;;;;4873857;29;20230;-74
2023/05/10 00:36:25;;;;;;;0.60;0.60;;;13.50;86.30;;;;;;4870065;29;20264;-75
2023/05/10 00:38:55;;;;;;;1.03;0.93;;;13.50;86.20;;;;;;4869930;29;20730;-73
2023/05/10 00:41:25;;;;;;;0.73;0.60;;;13.50;86.30;;;;;;4870326;29;20209;-73
2023/05/10 00:43:53;;;;;;;0.40;0.40;;;13.50;86.40;;;;;;4872698;29;20233;-76
2023/05/10 00:46:22;;;;;;;3.47;0.73;;;13.40;86.50;;;;;;4872902;29;20201;-75
2023/05/10 00:48:50;;;;;;;0.77;0.77;;;13.40;86.40;;;;;;4877222;29;20277;-75
2023/05/10 00:51:19;;;;;;;1.13;0.97;;;13.40;86.50;;;;;;4873338;29;20257;-77
2023/05/10 00:53:47;;;;;;;0.77;0.73;;;13.40;86.80;;;;;;4875341;29;20265;-77
2023/05/10 00:56:16;;;;;;;0.57;0.57;;;13.30;86.60;;;;;;4877391;29;20224;-74
2023/05/10 00:58:49;;;;;;;2.33;1.37;;;13.30;86.70;;;;;;4874621;29;20348;-75
2023/05/10 01:01:18;;;;;;;1.43;0.60;;;13.30;86.90;;;;;;4873447;29;20463;-75
2023/05/10 01:03:47;;;;;;;0.53;0.50;;;13.30;86.80;;;;;;4878777;29;20224;-75
2023/05/10 01:06:15;;;;;;;0.63;0.60;;;13.30;87.90;;;;;;4879937;29;20236;-75
2023/05/10 01:08:44;;;;;;;0.53;0.53;;;13.30;86.80;;;;;;4878143;29;20233;-75
2023/05/10 01:11:12;;;;;;;2.83;1.23;;;13.20;86.80;;;;;;4877917;29;20214;-76
2023/05/10 01:13:44;;;;;;;1.50;1.13;;;13.20;87.20;;;;;;4878889;29;20202;-75
2023/05/10 01:16:14;;;;;;;1.47;1.30;;;13.20;87.60;;;;;;4880408;29;20208;-76
2023/05/10 01:18:43;;;;;;;1.90;1.27;;;13.20;87.70;;;;;;4887289;29;20228;-76
2023/05/10 01:21:24;;;;;;;1.20;1.07;;;13.20;88.10;;;;;;4878762;29;20194;-75
2023/05/10 01:24:19;;;;;;;0.70;0.67;;;13.20;88.20;;;;;;4880308;29;20709;-76
2023/05/10 01:27:13;;;;;;;2.73;1.23;;;13.10;88.10;;;;;;4878028;29;20231;-75
2023/05/10 01:30:02;;;;;;;2.23;1.03;;;13.10;88.10;;;;;;4883265;29;20196;-75
2023/05/10 01:32:42;;;;;;;1.23;1.10;;;13.10;88.10;;;;;;4881861;29;20210;-75
2023/05/10 01:35:16;;;;;;;1.47;1.10;;;13.10;88.40;;;;;;4877321;29;20208;-75
2023/05/10 01:37:50;;;;;;;0.90;0.63;;;13.00;88.70;;;;;;4878764;29;20201;-75
2023/05/10 01:40:26;;;;;;;2.67;0.87;;;13.00;88.50;;;;;;4879802;29;20205;-75
2023/05/10 01:43:04;;;;;;;0.67;0.67;;;13.00;88.60;;;;;;4876309;29;20299;-76
2023/05/10 01:45:37;;;;;;;1.00;0.90;;;13.00;88.90;;;;;;4882566;29;20201;-75
2023/05/10 01:48:09;;;;;;;1.30;1.03;;;13.00;89.00;;;;;;4882899;29;20233;-75
2023/05/10 01:50:42;;;;;;;1.70;0.70;;;13.00;89.30;;;;;;4886870;29;20256;-75
2023/05/10 01:53:12;;;;;;;2.40;1.00;;;12.90;89.20;;;;;;4873660;29;20201;-76
2023/05/10 01:55:47;;;;;;;2.80;1.03;;;12.90;89.70;;;;;;4884004;29;20732;-74
2023/05/10 01:58:21;;;;;;;1.83;0.93;;;12.90;89.40;;;;;;4885200;29;20243;-75
2023/05/10 02:00:51;;;;;;;1.87;1.03;;;12.90;89.50;;;;;;4884866;29;20229;-75
2023/05/10 02:03:24;;;;;;;1.50;1.07;;;12.90;89.70;;;;;;4883652;29;20213;-75
2023/05/10 02:05:54;;;;;;;1.10;1.00;;;12.90;89.80;;;;;;4885675;29;20205;-75
2023/05/10 02:08:23;;;;;;;1.47;1.30;;;12.90;90.00;;;;;;4886045;29;20707;-75
2023/05/10 02:10:53;;;;;;;1.63;1.33;;;12.90;90.00;;;;;;4882251;29;20216;-74
2023/05/10 02:13:24;;;;;;;2.57;0.87;;;12.90;90.10;;;;;;4880614;29;20194;-75
2023/05/10 02:15:54;;;;;;;1.87;1.23;;;12.90;90.10;;;;;;4878722;29;20229;-75
2023/05/10 02:18:26;;;;;;;0.67;0.67;;;12.80;90.00;;;;;;4880743;29;20214;-74
2023/05/10 02:20:56;;;;;;;2.10;1.87;;;12.80;90.00;;;;;;4885757;29;20200;-75
2023/05/10 02:23:26;;;;;;;1.93;1.10;;;12.80;90.00;;;;;;4883446;29;20224;-75
2023/05/10 02:25:55;;;;;;;0.70;0.57;;;12.80;90.10;;;;;;4885453;29;20209;-75
2023/05/10 02:28:25;;;;;;;1.20;1.10;;;12.80;90.00;;;;;;4882868;29;20262;-75
2023/05/10 02:31:03;;;;;;;1.20;0.73;;;12.80;90.00;;;;;;4885517;29;20209;-75
2023/05/10 02:33:36;;;;;;;1.50;1.33;;;12.80;90.00;;;;;;4882366;29;20199;-75
2023/05/10 02:36:05;;;;;;;0.80;0.80;;;12.90;90.00;;;;;;4881315;29;20205;-76
2023/05/10 02:38:35;;;;;;;2.30;1.20;;;12.90;90.00;;;;;;4878339;29;20201;-75
2023/05/10 02:41:06;;;;;;;1.70;1.07;;;12.90;90.10;;;;;;4883600;29;20216;-75
2023/05/10 02:43:36;;;;;;;0.93;0.77;;;12.90;90.20;;;;;;4881912;29;20238;-76
2023/05/10 02:46:04;;;;;;;2.50;1.43;;;12.90;90.20;;;;;;4878787;29;20662;-75
2023/05/10 02:48:33;;;;;;;1.63;1.47;;;12.90;90.00;;;;;;4880694;29;20200;-75
2023/05/10 02:51:08;;;;;;;0.30;0.30;;;12.90;90.00;;;;;;4884115;29;20197;-75
2023/05/10 02:53:39;;;;;;;1.10;1.03;;;12.90;90.00;;;;;;4883483;29;20197;-75
2023/05/10 02:56:14;;;;;;;2.20;1.03;;;12.90;90.10;;;;;;4880777;29;20208;-75
2023/05/10 02:58:43;;;;;;;1.87;1.60;;;12.90;90.30;;;;;;4883015;29;20204;-75
2023/05/10 03:01:11;;;;;;;1.70;1.53;;;12.90;90.20;;;;;;4877943;29;20209;-75
2023/05/10 03:03:39;;;;;;;0.93;0.67;;;12.90;90.20;;;;;;4885105;29;20248;-75
2023/05/10 03:06:09;;;;;;;1.60;1.00;;;12.90;90.10;;;;;;4880794;29;20494;-75
2023/05/10 03:08:38;;;;;;;0.77;0.63;;;13.00;90.30;;;;;;4879877;29;20253;-75
2023/05/10 03:11:24;;;;;;;1.40;0.93;;;12.90;90.50;;;;;;4882500;29;20198;-75
2023/05/10 03:14:04;;;;;;;1.50;1.13;;;12.90;90.40;;;;;;4881666;29;20193;-74
2023/05/10 03:16:37;;;;;;;1.80;1.60;;;13.00;90.40;;;;;;4879141;29;20233;-75
2023/05/10 03:19:17;;;;;;;1.47;1.37;;;13.00;90.50;;;;;;4886315;29;20236;-74
2023/05/10 03:21:52;;;;;;;1.23;1.13;;;13.00;90.50;;;;;;4885684;29;20196;-76
2023/05/10 03:24:23;;;;;;;1.20;0.77;;;13.00;90.40;;;;;;4871275;29;20205;-75
2023/05/10 03:26:52;;;;;;;0.70;0.47;;;13.10;90.30;;;;;;4880809;29;20232;-75
2023/05/10 03:29:23;;;;;;;1.80;1.17;;;13.10;90.30;;;;;;4878277;29;20197;-75
2023/05/10 03:31:51;;;;;;;0.73;0.60;;;13.10;90.30;;;;;;4875796;29;20274;-76
2023/05/10 03:34:24;;;;;;;0.77;0.70;;;13.20;90.20;;;;;;4884639;29;20201;-75
2023/05/10 03:36:54;;;;;;;0.60;0.60;;;13.20;90.20;;;;;;4872567;29;20193;-75
2023/05/10 03:39:22;;;;;;;0.70;0.70;;;13.20;90.20;;;;;;4878459;29;20270;-74
2023/05/10 03:41:52;;;;;;;2.23;0.93;;;13.30;90.20;;;;;;4874778;29;20205;-74
2023/05/10 03:44:20;;;;;;;0.87;0.87;;;13.30;90.20;;;;;;4872947;29;20331;-74
2023/05/10 03:46:49;;;;;;;1.47;1.37;;;13.40;90.30;;;;;;4872902;29;20627;-75
2023/05/10 03:49:17;;;;;;;2.03;1.17;;;13.40;90.30;;;;;;4878763;29;20292;-75
2023/05/10 03:51:45;;;;;;;0.73;0.73;;;13.40;90.30;;;;;;4872338;29;20209;-74
2023/05/10 03:54:15;;;;;;;2.03;1.83;;;13.40;90.30;;;;;;4868736;29;20224;-74
2023/05/10 03:56:43;;;;;;;1.70;1.37;;;13.40;90.30;;;;;;4871770;29;20201;-75
2023/05/10 03:59:12;;;;;;;4.60;0.90;;;13.50;90.40;;;;;;4876515;29;20248;-75
2023/05/10 04:01:40;;;;;;;1.60;1.10;;;13.50;90.20;;;;;;4872473;29;20209;-74
2023/05/10 04:04:08;;;;;;;1.67;1.00;;;13.50;90.20;;;;;;4879182;29;20225;-75
2023/05/10 04:06:36;;;;;;;0.70;0.63;;;13.50;90.10;;;;;;4876521;29;20209;-74
2023/05/10 04:09:05;;;;;;;1.20;0.93;;;13.60;90.10;;;;;;4869618;29;20493;-75
2023/05/10 04:11:35;;;;;;;1.13;1.03;;;13.60;90.00;;;;;;4874858;29;20228;-76
2023/05/10 04:14:03;;;;;;;1.33;1.07;;;13.60;90.00;;;;;;4876939;29;20312;-75
2023/05/10 04:16:31;;;;;;;0.40;0.40;;;13.60;90.00;;;;;;4877783;29;20229;-75
2023/05/10 04:19:00;;;;;;;1.60;1.17;;;13.70;89.90;;;;;;4878378;29;20209;-74
2023/05/10 04:21:29;;;;;;;0.40;0.40;;;13.70;89.80;;;;;;4876080;29;20844;-74
2023/05/10 04:23:57;;;;;;;2.57;0.90;;;13.80;89.80;;;;;;4878203;29;20239;-75
2023/05/10 04:26:25;;;;;;;2.20;1.33;;;13.80;89.60;;;;;;4879263;29;20202;-75
2023/05/10 04:28:55;;;;;;;3.73;1.83;;;13.80;89.30;;;;;;4875262;29;20219;-75
2023/05/10 04:31:23;;;;;;;1.47;1.03;;;13.90;89.20;;;;;;4881128;29;20257;-75
2023/05/10 04:33:52;;;;;;;0.70;0.53;;;13.90;89.20;;;;;;4869639;29;20671;-76
2023/05/10 04:36:20;;;;;;;1.43;1.13;;;14.00;89.20;;;;;;4880604;29;20693;-76
2023/05/10 04:38:48;;;;;;;3.67;0.93;;;14.00;88.90;;;;;;4879543;29;20643;-75
2023/05/10 04:41:16;;;;;;;0.73;0.73;;;14.10;89.00;;;;;;4869942;29;20301;-75
2023/05/10 04:43:45;;;;;;;1.00;0.83;;;14.10;88.30;;;;;;4874344;29;20318;-75
2023/05/10 04:46:14;;;;;;;5.10;2.17;;;14.20;88.30;;;;;;4873168;29;20277;-75
2023/05/10 04:48:43;;;;;;;3.47;1.47;;;14.20;87.50;;;;;;4870529;29;20364;-75
2023/05/10 04:51:12;;;;;;;2.93;0.63;;;14.20;87.30;;;;;;4882102;29;20690;-75
2023/05/10 04:53:40;;;;;;;1.50;1.00;;;14.30;87.40;;;;;;4877244;29;20208;-75
2023/05/10 04:56:13;;;;;;;1.03;0.70;;;14.30;88.10;;;;;;4879007;29;20764;-74
2023/05/10 04:58:41;;;;;;;0.63;0.60;;;14.40;87.20;;;;;;4876776;29;20297;-75
2023/05/10 05:01:10;;;;;;;1.90;1.17;;;14.50;87.10;;;;;;4878607;29;20276;-74
2023/05/10 05:03:40;;;;;;;1.77;1.30;;;14.50;86.60;;;;;;4876978;29;20240;-75
2023/05/10 05:06:08;;;;;;;1.20;0.43;;;14.60;86.50;;;;;;4875037;29;20665;-74
2023/05/10 05:08:37;;;;;;;2.00;0.97;;;14.70;86.10;;;;;;4870856;29;20305;-75
2023/05/10 05:11:05;;;;;;;0.90;0.73;;;14.70;85.50;;;;;;4879747;29;20205;-75
2023/05/10 05:13:33;;;;;;;1.00;0.93;;;14.70;85.50;;;;;;4883468;29;20201;-74
2023/05/10 05:16:02;;;;;;;0.80;0.60;;;14.80;84.70;;;;;;4876658;29;20261;-76
2023/05/10 05:18:31;;;;;;;2.27;1.17;;;14.80;84.60;;;;;;4874694;29;20297;-74
2023/05/10 05:21:00;;;;;;;1.03;0.80;;;14.90;84.50;;;;;;4877640;29;20359;-75
2023/05/10 05:23:29;;;;;;;1.13;0.70;;;14.90;84.10;;;;;;4878269;29;20217;-74
2023/05/10 05:25:57;;;;;;;1.70;0.97;;;14.90;84.20;;;;;;4875971;29;20375;-74
2023/05/10 05:28:25;;;;;;;1.43;0.53;;;15.00;84.30;;;;;;4878365;29;20623;-75
2023/05/10 05:30:53;;;;;;;1.07;0.77;;;15.10;84.00;;;;;;4876389;29;20201;-76
2023/05/10 05:33:22;;;;;;;1.60;0.83;;;15.10;83.60;;;;;;4876451;29;20339;-74
2023/05/10 05:35:50;;;;;;;0.97;0.70;;;15.20;82.70;;;;;;4872816;29;20288;-75
2023/05/10 05:38:20;;;;;;;3.33;1.03;;;15.20;82.30;;;;;;4873711;29;20205;-76
2023/05/10 05:40:48;;;;;;;1.47;0.77;;;15.20;82.40;;;;;;4872815;29;20599;-75
2023/05/10 05:43:16;;;;;;;0.83;0.63;;;15.30;82.30;;;;;;4875718;29;20876;-75
2023/05/10 05:45:45;;;;;;;0.80;0.60;;;15.40;82.20;;;;;;4874300;29;20618;-75
2023/05/10 05:48:14;;;;;;;2.47;1.63;;;15.40;82.40;;;;;;4874018;29;20677;-75
2023/05/10 05:50:42;;;;;;;8.00;1.27;;;15.40;81.80;;;;;;4873789;29;20261;-74
2023/05/10 05:53:10;;;;;;;1.17;0.90;;;15.50;81.80;;;;;;4876441;29;20209;-74
2023/05/10 05:55:40;;;;;;;1.63;1.07;;;15.50;81.40;;;;;;4869255;29;20635;-75
2023/05/10 05:58:08;;;;;;;2.47;1.07;;;15.60;81.30;;;;;;4871883;29;20284;-74
2023/05/10 06:00:37;;;;;;;4.67;1.67;;;15.60;81.30;;;;;;4873000;29;20257;-75
2023/05/10 06:03:06;;;;;;;4.57;1.73;;;15.70;81.20;;;;;;4878235;29;20339;-77
2023/05/10 06:05:34;;;;;;;2.93;1.00;;;15.80;80.20;;;;;;4874860;29;20232;-74
2023/05/10 06:08:02;;;;;;;1.60;0.90;;;15.80;80.40;;;;;;4877143;29;20233;-75
2023/05/10 06:10:31;;;;;;;1.83;1.27;;;15.80;80.30;;;;;;4877002;29;20257;-74
2023/05/10 06:13:01;;;;;;;1.53;0.80;;;15.80;79.80;;;;;;4877470;29;20689;-75
2023/05/10 06:15:29;;;;;;;2.47;0.90;;;15.90;79.80;;;;;;4869497;29;20201;-74
2023/05/10 06:17:57;;;;;;;2.17;1.40;;;15.90;79.70;;;;;;4867492;29;20245;-76
2023/05/10 06:20:26;;;;;;;2.00;0.87;;;15.90;79.70;;;;;;4876562;29;20213;-76
2023/05/10 06:36:27;;;;;;;1.23;0.93;;;15.90;78.10;;;;;;5131267;27;20965;-78
2023/05/10 06:38:55;;;;;;;2.40;1.37;;;16.30;79.90;;;;;;5103062;28;20192;-77
2023/05/10 06:41:23;;;;;;;3.57;1.40;;;16.30;78.40;;;;;;5092536;28;20190;-78
2023/05/10 06:44:01;;;;;;;1.43;0.77;;;16.40;77.70;;;;;;5096537;28;20208;-77
2023/05/10 06:46:29;;;;;;;2.33;1.13;;;16.40;77.40;;;;;;5111605;28;20189;-77
2023/05/10 06:48:58;;;;;;;0.73;0.70;;;16.50;77.40;;;;;;5101913;28;20189;-77
2023/05/10 06:51:27;;;;;;;0.67;0.67;;;16.60;77.20;;;;;;5106388;28;20185;-80
2023/05/10 06:53:56;;;;;;;0.50;0.50;;;16.60;75.90;;;;;;5107642;28;20284;-78
2023/05/10 06:56:24;;;;;;;1.67;0.80;;;16.70;75.90;;;;;;5099655;28;20220;-78
2023/05/10 06:58:52;;;;;;;1.30;0.60;;;16.70;75.30;;;;;;5101073;28;20197;-78
2023/05/10 07:01:20;;;;;;;0.97;0.83;;;16.80;74.70;;;;;;5108167;28;20224;-79
2023/05/10 07:03:49;;;;;;;0.80;0.70;;;16.80;74.60;;;;;;5100625;28;20197;-78
2023/05/10 07:06:17;;;;;;;1.93;0.90;;;16.90;74.90;;;;;;5096687;28;20241;-78
2023/05/10 07:09:02;;;;;;;2.60;1.33;;;16.90;74.50;;;;;;5093993;28;20201;-79
2023/05/10 07:11:30;;;;;;;1.10;1.00;;;16.90;74.70;;;;;;5096716;28;20276;-79
2023/05/10 07:13:59;;;;;;;2.60;1.37;;;16.90;74.60;;;;;;5096609;28;20184;-78
2023/05/10 07:16:28;;;;;;;0.90;0.83;;;17.00;74.60;;;;;;5102857;28;20268;-78
2023/05/10 07:18:58;;;;;;;0.80;0.80;;;17.00;73.90;;;;;;5095086;28;20235;-79
2023/05/10 07:21:28;;;;;;;9.87;1.23;;;17.00;73.60;;;;;;5107110;28;20564;-77
2023/05/10 07:23:57;;;;;;;1.40;0.70;;;17.00;74.40;;;;;;5106463;28;20563;-77
2023/05/10 07:26:26;;;;;;;6.43;1.13;;;17.10;73.90;;;;;;5106009;28;20189;-77
2023/05/10 07:28:54;;;;;;;1.13;0.63;;;17.10;74.40;;;;;;5101149;28;20209;-77
2023/05/10 07:31:23;;;;;;;2.03;1.23;;;17.20;74.10;;;;;;5106694;28;20476;-75
2023/05/10 07:33:51;;;;;;;1.93;0.50;;;17.20;74.10;;;;;;5118418;28;20644;-77
2023/05/10 07:36:20;;;;;;;0.70;0.70;;;17.20;73.90;;;;;;5099682;28;20267;-76
2023/05/10 07:38:49;;;;;;;1.27;0.73;;;17.30;72.60;;;;;;5091371;28;20189;-77
2023/05/10 07:41:20;;;;;;;0.87;0.70;;;17.20;72.50;;;;;;5097581;28;20189;-78
2023/05/10 07:43:50;;;;;;;4.17;0.80;;;17.30;72.80;;;;;;5097337;28;20190;-75
2023/05/10 07:46:19;;;;;;;0.60;0.60;;;17.30;72.50;;;;;;5090408;28;20654;-77
2023/05/10 07:48:47;;;;;;;6.67;1.37;;;17.40;72.50;;;;;;5089410;28;20196;-76
2023/05/10 07:51:16;;;;;;;0.67;0.67;;;17.40;72.20;;;;;;5091770;28;20734;-75
2023/05/10 07:53:44;;;;;;;0.63;0.63;;;17.40;70.80;;;;;;5093837;28;20193;-77
2023/05/10 07:56:25;;;;;;;1.60;1.10;;;17.50;71.20;;;;;;5091675;28;20229;-77
2023/05/10 07:58:55;;;;;;;0.53;0.53;;;17.60;71.70;;;;;;5090638;28;20194;-76
2023/05/10 08:01:24;;;;;;;0.87;0.80;;;17.60;72.00;;;;;;5099754;28;20186;-75
2023/05/10 08:03:53;;;;;;;1.07;0.40;;;17.70;72.30;;;;;;5091934;28;20186;-76
2023/05/10 08:06:22;;;;;;;1.23;0.90;;;17.80;71.40;;;;;;5093817;28;20201;-77
2023/05/10 08:08:51;;;;;;;1.93;1.10;;;17.80;71.10;;;;;;5095352;28;20198;-77
2023/05/10 08:11:20;;;;;;;1.10;1.00;;;17.80;69.20;;;;;;5090567;28;20193;-78
2023/05/10 08:13:49;;;;;;;1.30;0.87;;;17.80;68.90;;;;;;5093159;28;20582;-76
2023/05/10 08:16:19;;;;;;;1.20;0.87;;;17.90;69.70;;;;;;5102256;28;20626;-78
2023/05/10 08:18:48;;;;;;;0.53;0.50;;;18.00;70.30;;;;;;5095452;28;20201;-77
2023/05/10 08:21:17;;;;;;;1.27;1.13;;;18.00;70.70;;;;;;5095861;28;20185;-80
2023/05/10 08:23:45;;;;;;;1.50;0.67;;;18.10;69.50;;;;;;5087390;28;20229;-76
2023/05/10 08:26:13;;;;;;;0.53;0.53;;;18.10;68.60;;;;;;5089337;28;20240;-76
2023/05/10 08:28:42;;;;;;;0.80;0.70;;;18.20;67.80;;;;;;5082130;28;20186;-77
2023/05/10 08:31:10;;;;;;;0.63;0.53;;;18.20;68.70;;;;;;5077914;28;20229;-77
2023/05/10 08:33:40;;;;;;;0.60;0.50;;;18.30;68.70;;;;;;5085593;28;20197;-77
2023/05/10 08:36:13;;;;;;;0.47;0.37;;;18.40;67.50;;;;;;5097758;28;20217;-77
2023/05/10 08:38:42;;;;;;;0.37;0.37;;;18.30;67.20;;;;;;5089597;28;20190;-76
2023/05/10 08:41:12;;;;;;;0.50;0.50;;;18.40;67.30;;;;;;5092356;28;20255;-76
2023/05/10 08:43:41;;;;;;;1.60;0.93;;;18.40;67.30;;;;;;5090580;28;20225;-76
2023/05/10 08:46:11;;;;;;;0.87;0.60;;;18.50;67.60;;;;;;5101489;28;20198;-77
2023/05/10 08:48:41;;;;;;;0.43;0.43;;;18.50;66.50;;;;;;5109102;28;20188;-77
2023/05/10 08:51:13;;;;;;;0.70;0.63;;;18.60;66.50;;;;;;5090906;28;20646;-75
2023/05/10 08:53:42;;;;;;;1.13;1.03;;;18.70;66.60;;;;;;5099083;28;20189;-78
2023/05/10 08:56:10;;;;;;;1.57;0.90;;;18.70;66.30;;;;;;5084155;28;20250;-76
2023/05/10 08:58:39;;;;;;;2.30;0.93;;;18.70;64.60;;;;;;5087240;28;20190;-76
2023/05/10 09:01:08;;;;;;;0.60;0.60;;;18.80;65.50;;;;;;5099301;28;20192;-77
2023/05/10 09:03:41;;;;;;;0.73;0.63;;;18.80;65.10;;;;;;5083345;28;20701;-78
2023/05/10 09:06:09;;;;;;;1.30;1.00;;;18.90;64.60;;;;;;5102103;28;20184;-79
2023/05/10 09:08:38;;;;;;;0.43;0.43;;;19.00;64.70;;;;;;5092396;28;20229;-78
2023/05/10 09:11:06;;;;;;;0.50;0.47;;;19.10;64.80;;;;;;5093484;28;20642;-76
2023/05/10 09:13:36;;;;;;;1.43;0.97;;;19.10;65.10;;;;;;5081930;28;20862;-77
2023/05/10 09:16:06;;;;;;;0.87;0.70;;;19.30;65.50;;;;;;5098416;28;20225;-78
2023/05/10 09:18:50;;;;;;;0.63;0.50;;;19.40;65.70;;;;;;5099355;28;20184;-78
2023/05/10 09:21:21;;;;;;;0.70;0.63;;;19.50;65.40;;;;;;5084683;28;20198;-77
2023/05/10 09:23:50;;;;;;;1.98;0.80;;;19.60;64.80;;;;;;5092422;28;20186;-77
2023/05/10 09:26:22;;;;;;;1.03;0.70;;;19.60;63.50;;;;;;5107136;28;20232;-76
2023/05/10 09:28:55;;;;;;;2.03;1.20;;;19.70;62.70;;;;;;5102229;28;20185;-75
2023/05/10 09:31:24;;;;;;;0.93;0.65;;;19.70;62.70;;;;;;5090450;28;20212;-77
2023/05/10 09:33:55;;;;;;;0.73;0.50;;;19.80;62.70;;;;;;5094319;28;20203;-76
2023/05/10 09:36:23;;;;;;;1.67;0.50;;;19.80;63.00;;;;;;5097093;28;20221;-78
2023/05/10 09:38:53;;;;;;;0.95;0.88;;;19.90;63.40;;;;;;5096562;28;20214;-77
2023/05/10 09:41:23;;;;;;;0.47;0.47;;;19.90;62.70;;;;;;5094317;28;20194;-78
2023/05/10 09:43:56;;;;;;;0.60;0.50;;;20.00;62.70;;;;;;5096196;28;20196;-76
2023/05/10 09:46:25;;;;;;;0.77;0.65;;;20.00;61.80;;;;;;5084587;28;20193;-76
2023/05/10 09:48:55;;;;;;;1.00;0.60;;;20.10;61.60;;;;;;5090542;28;20194;-76
2023/05/10 09:51:26;;;;;;;0.50;0.50;;;20.00;61.20;;;;;;5082740;28;20289;-77
2023/05/10 09:54:11;;;;;;;1.00;0.73;;;20.10;60.30;;;;;;5091818;28;20196;-76
2023/05/10 09:56:40;;;;;;;0.40;0.40;;;20.20;60.60;;;;;;5093210;28;20251;-77
2023/05/10 09:59:11;;;;;;;1.85;0.40;;;20.20;60.20;;;;;;5087351;28;20201;-76
2023/05/10 10:01:40;;;;;;;0.57;0.57;;;20.30;59.70;;;;;;5089819;28;20208;-76
2023/05/10 10:04:11;;;;;;;1.77;0.55;;;20.40;60.40;;;;;;5090682;28;20281;-78
2023/05/10 10:06:40;;;;;;;0.30;0.30;;;20.40;60.10;;;;;;5083180;28;20190;-78
2023/05/10 10:09:09;;;;;;;1.27;0.55;;;20.30;58.90;;;;;;5084841;28;20594;-76
2023/05/10 10:11:39;;;;;;;0.40;0.40;;;20.30;59.20;;;;;;5075402;28;20205;-78
2023/05/10 10:14:07;;;;;;;0.85;0.70;;;20.30;59.20;;;;;;5089892;28;20240;-77
2023/05/10 10:16:36;;;;;;;0.60;0.40;;;20.40;59.10;;;;;;5088367;28;20271;-78
2023/05/10 10:19:17;;;;;;;0.75;0.55;;;20.40;58.90;;;;;;5091608;28;20194;-77
2023/05/10 10:21:45;;;;;;;3.67;0.85;;;20.50;59.40;;;;;;5088624;28;20194;-77
2023/05/10 10:24:14;;;;;;;0.65;0.32;;;20.50;59.60;;;;;;5094541;28;20190;-76
2023/05/10 10:26:43;;;;;;;0.50;0.50;;;20.40;60.20;;;;;;5085701;28;20274;-77
2023/05/10 10:29:22;;;;;;;0.75;0.75;;;20.40;60.70;;;;;;5090615;28;20244;-78
2023/05/10 10:31:58;;;;;;;1.42;0.63;;;20.30;61.30;;;;;;5083564;28;20653;-78
2023/05/10 10:34:29;;;;;;;0.50;0.50;;;20.20;61.40;;;;;;5078114;28;20307;-76
2023/05/10 10:36:58;;;;;;;1.30;0.67;;;20.10;61.50;;;;;;5085545;28;20248;-78
2023/05/10 10:39:28;;;;;;;1.03;0.97;;;20.00;62.00;;;;;;5081960;28;20679;-77
2023/05/10 10:41:57;;;;;;;0.90;0.70;;;19.90;62.10;;;;;;5085632;28;20197;-77
2023/05/10 10:44:27;;;;;;;4.88;1.23;;;19.90;62.20;;;;;;5091017;28;20190;-78
2023/05/10 10:47:29;;;;;;;0.60;0.60;;;19.80;62.90;;;;;;5087638;28;20205;-80
2023/05/10 10:50:07;;;;;;;0.40;0.40;;;19.80;63.70;;;;;;5103067;28;20215;-79
2023/05/10 10:52:49;;;;;;;0.47;0.40;;;19.70;64.00;;;;;;5078161;28;20222;-78
2023/05/10 11:08:49;;;;;;;0.60;0.40;;;19.60;63.90;;;;;;5060047;28;20555;-78
2023/05/10 11:11:18;;;;;;;0.40;0.40;;;19.50;66.50;;;;;;5048937;28;20192;-77
2023/05/10 11:13:48;;;;;;;0.83;0.60;;;19.50;65.70;;;;;;5039035;28;20228;-77
2023/05/10 11:16:20;;;;;;;0.77;0.53;;;19.60;65.10;;;;;;5032204;28;20214;-78
2023/05/10 11:19:03;;;;;;;1.07;0.57;;;19.50;65.00;;;;;;5042643;28;20260;-78
2023/05/10 11:21:32;;;;;;;0.77;0.40;;;19.50;64.80;;;;;;5040325;28;20649;-78
2023/05/10 11:24:05;;;;;;;0.50;0.47;;;19.60;65.10;;;;;;5036267;28;20461;-77
2023/05/10 11:26:36;;;;;;;1.00;0.50;;;19.60;65.10;;;;;;5036334;28;20210;-78
2023/05/10 11:29:04;;;;;;;0.83;0.53;;;19.60;65.10;;;;;;5039811;28;20276;-78
2023/05/10 11:31:33;;;;;;;0.87;0.50;;;19.60;65.00;;;;;;5035362;28;20249;-77
2023/05/10 11:34:02;;;;;;;1.10;0.77;;;19.70;64.50;;;;;;5040200;28;20195;-77
2023/05/10 11:36:33;;;;;;;0.93;0.50;;;19.60;64.40;;;;;;5046944;28;20196;-79
2023/05/10 11:39:04;;;;;;;0.87;0.50;;;19.60;63.30;;;;;;5046974;28;20195;-78
2023/05/10 11:41:33;;;;;;;0.33;0.30;;;19.70;63.60;;;;;;5046980;28;20806;-79
2023/05/10 11:44:01;;;;;;;1.57;0.73;;;19.60;63.50;;;;;;5040792;28;20623;-78
2023/05/10 11:46:29;;;;;;;1.63;0.83;;;19.60;63.80;;;;;;5047070;28;20605;-80
2023/05/10 11:49:03;;;;;;;2.07;0.80;;;19.60;63.90;;;;;;5042782;28;20199;-81
2023/05/10 11:51:35;;;;;;;6.70;0.93;;;19.70;64.20;;;;;;5049188;28;20191;-80
2023/05/10 11:54:07;;;;;;;2.63;1.20;;;19.70;64.40;;;;;;5045752;28;20183;-81
2023/05/10 11:56:36;;;;;;;1.27;0.77;;;19.80;64.60;;;;;;5048144;28;20216;-78
2023/05/10 11:59:05;;;;;;;1.17;0.87;;;19.80;64.90;;;;;;5036694;28;20196;-79
2023/05/10 12:01:34;;;;;;;2.70;1.03;;;19.80;65.00;;;;;;5038464;28;20237;-79
2023/05/10 12:04:02;;;;;;;7.70;2.05;;;19.80;64.70;;;;;;5039142;28;20191;-78
2023/05/10 12:06:33;;;;;;;2.00;1.03;;;19.90;65.20;;;;;;5044445;28;20196;-79
2023/05/10 12:09:08;;;;;;;1.07;0.73;;;19.80;63.80;;;;;;5041634;28;20191;-79
2023/05/10 12:11:39;;;;;;;1.17;0.83;;;19.90;63.60;;;;;;5030734;28;20194;-78
2023/05/10 12:14:11;;;;;;;3.15;0.93;;;19.90;63.40;;;;;;5023465;28;20191;-79
2023/05/10 12:16:39;;;;;;;1.43;0.90;;;20.00;63.70;;;;;;5030213;28;20226;-78
2023/05/10 12:19:10;;;;;;;1.83;0.80;;;20.10;63.30;;;;;;5038071;28;20244;-81
2023/05/10 12:21:41;;;;;;;11.60;1.20;;;20.10;63.30;;;;;;5036922;28;20205;-78
2023/05/10 12:24:11;;;;;;;0.40;0.40;;;20.20;63.60;;;;;;5030048;28;20203;-80
2023/05/10 12:26:39;;;;;;;8.73;1.52;;;20.30;62.80;;;;;;5037762;28;20612;-78
2023/05/10 12:29:15;;;;;;;1.60;0.63;;;20.40;63.00;;;;;;5032422;28;20191;-78
2023/05/10 12:32:01;;;;;;;0.32;0.32;;;20.40;61.20;;;;;;5035895;28;20203;-80
2023/05/10 12:34:32;;;;;;;0.80;0.50;;;20.50;60.20;;;;;;5032333;28;20675;-79
2023/05/10 12:37:02;;;;;;;1.38;1.13;;;20.50;59.70;;;;;;5033722;28;20242;-80
2023/05/10 12:39:41;;;;;;;0.43;0.43;;;20.60;60.10;;;;;;5031684;28;20243;-78
2023/05/10 12:42:10;;;;;;;0.45;0.45;;;20.60;60.20;;;;;;5030614;28;20229;-79
2023/05/10 12:44:39;;;;;;;0.70;0.70;;;20.70;60.60;;;;;;5041795;28;20648;-81
2023/05/10 12:47:08;;;;;;;0.60;0.60;;;20.80;60.60;;;;;;5025945;28;20231;-80
2023/05/10 12:49:36;;;;;;;1.02;0.93;;;20.80;60.80;;;;;;5029453;28;20188;-79
2023/05/10 12:52:04;;;;;;;0.60;0.52;;;20.90;60.40;;;;;;5026982;28;20465;-81
2023/05/10 12:54:33;;;;;;;1.10;0.90;;;20.90;60.20;;;;;;5023747;28;20245;-81
2023/05/10 12:57:02;;;;;;;0.50;0.50;;;21.00;60.40;;;;;;5024659;28;20287;-80
2023/05/10 12:59:31;;;;;;;0.82;0.77;;;21.00;60.20;;;;;;5032373;28;20196;-81
2023/05/10 13:01:59;;;;;;;1.23;0.88;;;21.10;60.20;;;;;;5027529;28;20291;-80
2023/05/10 13:04:27;;;;;;;1.17;0.40;;;21.10;59.90;;;;;;5027548;28;21231;-78
2023/05/10 13:06:58;;;;;;;0.43;0.43;;;21.10;60.20;;;;;;5037374;28;20215;-82
2023/05/10 13:09:29;;;;;;;0.85;0.65;;;21.20;60.10;;;;;;5041730;28;20552;-78
2023/05/10 13:11:57;;;;;;;1.17;0.73;;;21.20;59.60;;;;;;5024117;28;20548;-78
2023/05/10 13:14:27;;;;;;;0.95;0.73;;;21.20;59.40;;;;;;5032648;28;20200;-79
2023/05/10 13:16:55;;;;;;;2.15;0.75;;;21.30;59.80;;;;;;5028317;28;20637;-79
2023/05/10 13:19:24;;;;;;;1.63;0.65;;;21.20;59.70;;;;;;5028618;28;20282;-77
2023/05/10 13:21:52;;;;;;;1.50;1.20;;;21.20;59.80;;;;;;5030061;28;20617;-77
2023/05/10 13:24:21;;;;;;;1.40;1.08;;;21.20;59.70;;;;;;5030066;28;20600;-77
2023/05/10 13:26:49;;;;;;;2.20;0.88;;;21.10;59.70;;;;;;5030220;28;20302;-79
2023/05/10 13:29:18;;;;;;;2.78;1.48;;;21.00;59.10;;;;;;5027825;28;20281;-78
2023/05/10 13:31:48;;;;;;;0.85;0.77;;;21.00;59.30;;;;;;5026732;28;20211;-78